地図

経路データ

SID SEASON NUMBER BASIN SUBBASIN NAME ISO_TIME NATURE LAT LON WMO_WIND WMO_PRES WMO_AGENCY TRACK_TYPE DIST2LAND LANDFALL IFLAG USA_AGENCY USA_ATCF_ID USA_LAT USA_LON USA_RECORD USA_STATUS USA_WIND USA_PRES USA_SSHS USA_R34_NE USA_R34_SE USA_R34_SW USA_R34_NW USA_R50_NE USA_R50_SE USA_R50_SW USA_R50_NW USA_R64_NE USA_R64_SE USA_R64_SW USA_R64_NW USA_POCI USA_ROCI USA_RMW USA_EYE TOKYO_LAT TOKYO_LON TOKYO_GRADE TOKYO_WIND TOKYO_PRES TOKYO_R50_DIR TOKYO_R50_LONG TOKYO_R50_SHORT TOKYO_R30_DIR TOKYO_R30_LONG TOKYO_R30_SHORT TOKYO_LAND CMA_LAT CMA_LON CMA_CAT CMA_WIND CMA_PRES HKO_LAT HKO_LON HKO_CAT HKO_WIND HKO_PRES NEWDELHI_LAT NEWDELHI_LON NEWDELHI_GRADE NEWDELHI_WIND NEWDELHI_PRES NEWDELHI_CI NEWDELHI_DP NEWDELHI_POCI REUNION_LAT REUNION_LON REUNION_TYPE REUNION_WIND REUNION_PRES REUNION_TNUM REUNION_CI REUNION_RMW REUNION_R34_NE REUNION_R34_SE REUNION_R34_SW REUNION_R34_NW REUNION_R50_NE REUNION_R50_SE REUNION_R50_SW REUNION_R50_NW REUNION_R64_NE REUNION_R64_SE REUNION_R64_SW REUNION_R64_NW BOM_LAT BOM_LON BOM_TYPE BOM_WIND BOM_PRES BOM_TNUM BOM_CI BOM_RMW BOM_R34_NE BOM_R34_SE BOM_R34_SW BOM_R34_NW BOM_R50_NE BOM_R50_SE BOM_R50_SW BOM_R50_NW BOM_R64_NE BOM_R64_SE BOM_R64_SW BOM_R64_NW BOM_ROCI BOM_POCI BOM_EYE BOM_POS_METHOD BOM_PRES_METHOD NADI_LAT NADI_LON NADI_CAT NADI_WIND NADI_PRES WELLINGTON_LAT WELLINGTON_LON WELLINGTON_WIND WELLINGTON_PRES DS824_LAT DS824_LON DS824_STAGE DS824_WIND DS824_PRES TD9636_LAT TD9636_LON TD9636_STAGE TD9636_WIND TD9636_PRES TD9635_LAT TD9635_LON TD9635_WIND TD9635_PRES TD9635_ROCI NEUMANN_LAT NEUMANN_LON NEUMANN_CLASS NEUMANN_WIND NEUMANN_PRES MLC_LAT MLC_LON MLC_CLASS MLC_WIND MLC_PRES USA_GUST BOM_GUST BOM_GUST_PER REUNION_GUST REUNION_GUST_PER USA_SEAHGT USA_SEARAD_NE USA_SEARAD_SE USA_SEARAD_SW USA_SEARAD_NW STORM_SPEED STORM_DIR
1906152N19118 1906 17 WP MM NOT_NAMED 1906-05-31 16:00:00 NR 19.2000 118.300 main 258 252 __________O___ -1 19.2000 118.300 7 7 37
1906152N19118 1906 17 WP MM NOT_NAMED 1906-05-31 18:00:00 NR 19.3763 118.436 main 257 243 __________P___ -1 19.3763 118.436 7 7 35
1906152N19118 1906 17 WP MM NOT_NAMED 1906-05-31 21:00:00 NR 19.6620 118.645 main 255 245 __________P___ -1 19.6620 118.645 7 8 33
1906152N19118 1906 17 WP MM NOT_NAMED 1906-06-01 00:00:00 NR 20.0027 118.868 main 252 235 __________P___ -1 20.0027 118.868 7 9 30
1906152N19118 1906 17 WP MM NOT_NAMED 1906-06-01 03:00:00 NR 20.4317 119.112 main 235 212 __________P___ -1 20.4317 119.112 7 10 28
1906152N19118 1906 17 WP MM NOT_NAMED 1906-06-01 04:00:00 NR 20.6000 119.200 main 212 167 __________O___ -1 20.6000 119.200 7 12 25
1906152N19118 1906 17 WP MM NOT_NAMED 1906-06-01 06:00:00 NR 20.9782 119.387 main 167 108 __________P___ -1 20.9782 119.387 7 14 24
1906152N19118 1906 17 WP MM NOT_NAMED 1906-06-01 09:00:00 NR 21.6276 119.698 main 108 30 __________P___ -1 21.6276 119.698 7 15 24
1906152N19118 1906 17 WP MM NOT_NAMED 1906-06-01 12:00:00 NR 22.3368 120.052 main 30 0 __________P___ -1 22.3368 120.052 7 16 26
1906152N19118 1906 17 WP MM NOT_NAMED 1906-06-01 15:00:00 NR 23.0621 120.454 main 0 0 __________P___ -1 23.0621 120.454 7 16 28
1906152N19118 1906 17 WP MM NOT_NAMED 1906-06-01 16:00:00 NR 23.3000 120.600 main 0 0 __________O___ -1 23.3000 120.600 7 17 32
1906152N19118 1906 17 WP MM NOT_NAMED 1906-06-01 18:00:00 NR 23.7896 120.944 main 0 0 __________P___ -1 23.7896 120.944 7 18 34
1906152N19118 1906 17 WP MM NOT_NAMED 1906-06-01 21:00:00 NR 24.5186 121.507 main 0 0 __________P___ -1 24.5186 121.507 7 17 36
1906152N19118 1906 17 WP MM NOT_NAMED 1906-06-02 00:00:00 NR 25.1904 122.068 main 24 24 __________P___ -1 25.1904 122.068 7 16 38
1906152N19118 1906 17 WP MM NOT_NAMED 1906-06-02 03:00:00 NR 25.7487 122.562 main 98 107 __________P___ -1 25.7487 122.562 7 14 39
1906152N19118 1906 17 WP MM NOT_NAMED 1906-06-02 04:00:00 NR 25.9000 122.700 main 122 122 __________O___ -1 25.9000 122.700 7 10 39
1906152N19118 1906 17 WP MM NOT_NAMED 1906-06-02 06:00:00 NR 26.1215 122.899 main 152 152 __________P___ -1 26.1215 122.899 7 7 40
1906152N19118 1906 17 WP MM NOT_NAMED 1906-06-02 09:00:00 NR 26.3348 123.107 main 182 182 __________P___ -1 26.3348 123.107 7 5 43
1906152N19118 1906 17 WP MM NOT_NAMED 1906-06-02 12:00:00 NR 26.4608 123.246 main 206 212 __________P___ -1 26.4608 123.246 7 3 45
1906152N19118 1906 17 WP MM NOT_NAMED 1906-06-02 15:00:00 NR 26.5614 123.360 main 227 227 __________P___ -1 26.5614 123.360 7 3 44
1906152N19118 1906 17 WP MM NOT_NAMED 1906-06-02 16:00:00 NR 26.6000 123.400 main 227 227 __________O___ -1 26.6000 123.400 7 4 39
1906152N19118 1906 17 WP MM NOT_NAMED 1906-06-02 18:00:00 NR 26.7275 123.509 main 241 241 __________P___ -1 26.7275 123.509 7 5 37
1906152N19118 1906 17 WP MM NOT_NAMED 1906-06-02 21:00:00 NR 26.9251 123.672 main 259 252 __________P___ -1 26.9251 123.672 7 5 37
1906152N19118 1906 17 WP MM NOT_NAMED 1906-06-03 00:00:00 NR 27.1276 123.843 main 254 257 __________P___ -1 27.1276 123.843 7 5 38
1906152N19118 1906 17 WP MM NOT_NAMED 1906-06-03 03:00:00 NR 27.3320 124.032 main 260 260 __________P___ -1 27.3320 124.032 7 5 40
1906152N19118 1906 17 WP MM NOT_NAMED 1906-06-03 04:00:00 NR 27.4000 124.100 main 265 265 __________O___ -1 27.4000 124.100 7 6 43
1906152N19118 1906 17 WP MM NOT_NAMED 1906-06-03 06:00:00 NR 27.5359 124.247 main 270 276 __________P___ -1 27.5359 124.247 7 6 45
1906152N19118 1906 17 WP MM NOT_NAMED 1906-06-03 09:00:00 NR 27.7399 124.486 main 292 289 __________P___ -1 27.7399 124.486 7 6 47
1906152N19118 1906 17 WP MM NOT_NAMED 1906-06-03 12:00:00 NR 27.9412 124.743 main 300 304 __________P___ -1 27.9412 124.743 7 6 49
1906152N19118 1906 17 WP MM NOT_NAMED 1906-06-03 15:00:00 NR 28.1367 125.010 main 317 312 __________P___ -1 28.1367 125.010 7 6 51
1906152N19118 1906 17 WP MM NOT_NAMED 1906-06-03 16:00:00 NR 28.2000 125.100 main 321 321 __________O___ -1 28.2000 125.100 7 6 52
1906152N19118 1906 17 WP MM NOT_NAMED 1906-06-03 18:00:00 NR 28.3236 125.281 main 336 333 __________P___ -1 28.3236 125.281 7 6 53
1906152N19118 1906 17 WP MM NOT_NAMED 1906-06-03 21:00:00 NR 28.5023 125.555 main 358 356 __________P___ -1 28.5023 125.555 7 6 54
1906152N19118 1906 17 WP MM NOT_NAMED 1906-06-04 00:00:00 NR 28.6750 125.831 main 373 373 __________P___ -1 28.6750 125.831 7 6 55
1906152N19118 1906 17 WP MM NOT_NAMED 1906-06-04 03:00:00 NR 28.8441 126.108 main 400 399 __________P___ -1 28.8441 126.108 7 6 55
1906152N19118 1906 17 WP MM NOT_NAMED 1906-06-04 04:00:00 NR 28.9000 126.200 main 409 __________O___ -1 28.9000 126.200 7 6 55

デジタル台風データ・検索

IBTrACS Databaseについて

本データベースは、米国NOAAが公開する1842年以降の世界の熱帯低気圧のベストトラックデータアーカイブInternational Best Track Archive for Climate Stewardship (IBTrACS)を、ウェブで閲覧しやすい形式に変換したものです。

最終更新日:2021-10-08